Time;durP1;ratioP1;P1;durP2;ratioP2;P2;SDS_P1;SDS_P2;PMS_P1;PMS_P2;Temp;Humidity;BMP_temperature;BMP_pressure;BME280_temperature;BME280_humidity;BME280_pressure;Samples;Min_cycle;Max_cycle;Signal;HPM_P1;HPM_P2
2022/09/06 00:00:38;;;;;;;4.00;2.13;;;24.70;54.60;;;;;;4459969;32;20211;-71
2022/09/06 00:03:07;;;;;;;3.28;1.90;;;24.70;54.60;;;;;;4460532;32;20167;-71
2022/09/06 00:05:34;;;;;;;4.40;2.10;;;24.70;54.60;;;;;;4460532;32;20614;-71
2022/09/06 00:08:01;;;;;;;4.63;1.80;;;24.70;54.60;;;;;;4446779;32;20128;-71
2022/09/06 00:10:28;;;;;;;2.92;1.90;;;24.70;54.50;;;;;;4460179;32;20565;-71
2022/09/06 00:12:54;;;;;;;4.05;2.25;;;24.70;54.50;;;;;;4433577;32;20116;-71
2022/09/06 00:15:21;;;;;;;2.95;2.05;;;24.70;54.50;;;;;;4446547;32;20508;-71
2022/09/06 00:17:47;;;;;;;6.78;2.20;;;24.70;54.50;;;;;;4460470;32;20088;-71
2022/09/06 00:20:14;;;;;;;4.65;2.10;;;24.70;54.50;;;;;;4460443;32;20117;-72
2022/09/06 00:22:40;;;;;;;3.65;1.95;;;24.70;54.50;;;;;;4460482;32;20078;-71
2022/09/06 00:25:06;;;;;;;4.03;1.90;;;24.70;54.50;;;;;;4446481;32;20136;-71
2022/09/06 00:27:33;;;;;;;2.42;1.83;;;24.70;54.50;;;;;;4460619;32;20066;-72
2022/09/06 00:29:59;;;;;;;2.30;2.10;;;24.70;54.50;;;;;;4460544;32;20259;-72
2022/09/06 00:32:25;;;;;;;2.55;1.90;;;24.70;54.50;;;;;;4446445;32;20078;-71
2022/09/06 00:34:51;;;;;;;2.53;2.00;;;24.70;54.40;;;;;;4460286;32;20213;-73
2022/09/06 00:37:17;;;;;;;3.17;1.88;;;24.70;54.50;;;;;;4460301;32;20216;-72
2022/09/06 00:39:43;;;;;;;3.63;1.85;;;24.70;54.50;;;;;;4460357;32;20135;-71
2022/09/06 00:42:10;;;;;;;3.05;1.90;;;24.70;54.40;;;;;;4460287;32;20414;-72
2022/09/06 00:44:37;;;;;;;2.83;1.90;;;24.70;54.40;;;;;;4460479;32;20066;-71
2022/09/06 00:47:04;;;;;;;2.72;1.70;;;24.70;54.40;;;;;;4459928;32;20069;-71
2022/09/06 00:49:46;;;;;;;3.75;2.03;;;24.70;54.40;;;;;;4460229;32;20443;-72
2022/09/06 00:52:18;;;;;;;3.47;1.80;;;24.70;54.40;;;;;;4446302;32;20140;-71
2022/09/06 00:54:46;;;;;;;3.20;2.53;;;24.60;54.30;;;;;;4460475;32;20141;-71
2022/09/06 00:57:13;;;;;;;1.98;1.60;;;24.60;54.40;;;;;;4460463;32;20079;-71
2022/09/06 00:59:41;;;;;;;4.20;2.40;;;24.60;54.40;;;;;;4460186;32;20058;-71
2022/09/06 01:02:08;;;;;;;3.45;2.22;;;24.60;54.30;;;;;;4460130;32;20082;-71
2022/09/06 01:04:37;;;;;;;2.92;2.00;;;24.60;54.40;;;;;;4460079;32;20082;-71
2022/09/06 01:07:31;;;;;;;2.38;1.92;;;24.60;54.30;;;;;;4460360;32;20062;-71
2022/09/06 01:10:18;;;;;;;2.45;1.83;;;24.60;54.30;;;;;;4459917;32;20492;-71
2022/09/06 01:13:08;;;;;;;2.03;1.65;;;24.60;54.30;;;;;;4463143;32;20168;-71
2022/09/06 01:15:59;;;;;;;2.10;1.88;;;24.60;54.30;;;;;;4463016;32;20252;-71
2022/09/06 01:19:19;;;;;;;2.50;1.70;;;24.60;54.30;;;;;;4463201;32;20074;-71
2022/09/06 01:22:06;;;;;;;5.10;2.00;;;24.60;54.30;;;;;;4399530;32;20159;-71
2022/09/06 01:24:41;;;;;;;2.67;2.00;;;24.60;54.40;;;;;;4458879;32;20081;-71
2022/09/06 01:27:19;;;;;;;2.28;1.70;;;24.60;54.40;;;;;;4463022;32;20563;-71
2022/09/06 01:29:53;;;;;;;2.83;1.70;;;24.60;54.30;;;;;;4462562;32;20516;-71
2022/09/06 01:32:19;;;;;;;2.15;1.95;;;24.60;54.30;;;;;;4462771;32;20140;-71
2022/09/06 01:34:52;;;;;;;2.13;1.83;;;24.60;54.30;;;;;;4462535;32;20066;-71
2022/09/06 01:37:21;;;;;;;2.33;2.10;;;24.60;54.30;;;;;;4462721;32;20078;-72
2022/09/06 01:39:47;;;;;;;2.75;2.00;;;24.60;54.30;;;;;;4462867;32;20074;-72
2022/09/06 01:42:25;;;;;;;2.53;1.95;;;24.50;54.30;;;;;;4462565;32;20431;-72
2022/09/06 01:45:04;;;;;;;2.70;2.00;;;24.50;54.30;;;;;;4448564;32;20100;-71
2022/09/06 01:48:07;;;;;;;2.55;1.80;;;24.50;54.30;;;;;;4462906;32;20561;-71
2022/09/06 01:51:04;;;;;;;2.47;1.80;;;24.50;54.30;;;;;;4462802;32;20156;-71
2022/09/06 01:54:07;;;;;;;3.92;1.77;;;24.60;54.30;;;;;;4462483;32;20090;-71
2022/09/06 01:57:05;;;;;;;2.42;1.90;;;24.50;54.30;;;;;;4462490;32;20070;-71
2022/09/06 01:59:54;;;;;;;2.10;1.90;;;24.50;54.30;;;;;;4462438;32;20070;-71
2022/09/06 02:02:28;;;;;;;2.47;1.88;;;24.50;54.30;;;;;;4462685;32;20082;-71
2022/09/06 02:05:07;;;;;;;2.25;1.90;;;24.50;54.30;;;;;;4462243;32;20159;-71
2022/09/06 02:07:35;;;;;;;2.63;1.98;;;24.50;54.30;;;;;;4462298;32;20484;-71
2022/09/06 02:10:07;;;;;;;2.42;1.85;;;24.50;54.30;;;;;;4462319;32;20082;-71
2022/09/06 02:12:37;;;;;;;2.15;1.67;;;24.50;54.30;;;;;;4447888;32;20450;-71
2022/09/06 02:15:18;;;;;;;2.17;1.67;;;24.50;54.30;;;;;;4461879;32;20411;-71
2022/09/06 02:17:49;;;;;;;2.80;2.03;;;24.50;54.30;;;;;;4461738;32;20091;-72
2022/09/06 02:20:24;;;;;;;3.78;1.95;;;24.50;54.30;;;;;;4462392;32;20527;-71
2022/09/06 02:22:55;;;;;;;2.38;1.73;;;24.50;54.30;;;;;;4461503;32;20235;-71
2022/09/06 02:25:25;;;;;;;2.17;1.83;;;24.50;54.30;;;;;;4462088;32;20066;-71
2022/09/06 02:27:52;;;;;;;2.67;1.80;;;24.50;54.30;;;;;;4462593;32;20062;-71
2022/09/06 02:30:18;;;;;;;2.10;1.80;;;24.50;54.20;;;;;;4461500;32;20090;-71
2022/09/06 02:32:56;;;;;;;2.35;1.80;;;24.50;54.20;;;;;;4461991;32;20164;-74
2022/09/06 02:35:23;;;;;;;3.28;1.83;;;24.50;54.20;;;;;;4461599;32;20082;-71
2022/09/06 02:37:49;;;;;;;5.50;1.85;;;24.40;54.20;;;;;;4461769;32;20094;-71
2022/09/06 02:40:15;;;;;;;2.20;1.80;;;24.40;54.20;;;;;;4461504;32;20502;-71
2022/09/06 02:42:41;;;;;;;2.70;1.70;;;24.40;54.20;;;;;;4461654;32;20502;-71
2022/09/06 02:45:07;;;;;;;2.53;1.88;;;24.50;54.30;;;;;;4447238;32;20058;-71
2022/09/06 02:47:33;;;;;;;2.20;2.00;;;24.40;54.20;;;;;;4461912;32;20518;-71
2022/09/06 02:49:59;;;;;;;2.22;1.67;;;24.40;55.10;;;;;;4434698;32;20094;-71
2022/09/06 02:52:26;;;;;;;4.93;1.80;;;24.40;54.20;;;;;;4434976;32;20191;-71
2022/09/06 02:54:51;;;;;;;2.65;1.95;;;24.40;54.20;;;;;;4447736;32;20085;-71
2022/09/06 02:57:17;;;;;;;2.78;1.60;;;24.40;54.20;;;;;;4461496;32;20395;-71
2022/09/06 02:59:44;;;;;;;2.72;1.80;;;24.40;54.10;;;;;;4461432;32;20082;-71
2022/09/06 03:02:10;;;;;;;1.88;1.67;;;24.40;54.20;;;;;;4447130;32;20070;-71
2022/09/06 03:04:36;;;;;;;2.17;1.80;;;24.40;54.20;;;;;;4461018;32;20096;-71
2022/09/06 03:07:03;;;;;;;1.95;1.65;;;24.40;54.20;;;;;;4447424;32;20423;-71
2022/09/06 03:09:29;;;;;;;2.35;1.75;;;24.40;54.10;;;;;;4460965;32;20086;-71
2022/09/06 03:11:55;;;;;;;2.10;1.90;;;24.40;54.20;;;;;;4461415;32;20073;-71
2022/09/06 03:14:21;;;;;;;2.05;1.58;;;24.40;54.20;;;;;;4461231;32;20136;-71
2022/09/06 03:16:46;;;;;;;2.58;1.77;;;24.40;55.10;;;;;;4447338;32;20074;-71
2022/09/06 03:19:12;;;;;;;2.13;1.73;;;24.40;54.10;;;;;;4461357;32;20160;-71
2022/09/06 03:21:38;;;;;;;2.63;1.83;;;24.40;54.20;;;;;;4461115;32;20553;-71
2022/09/06 03:24:04;;;;;;;2.42;1.90;;;24.40;54.10;;;;;;4461061;32;20101;-71
2022/09/06 03:26:30;;;;;;;2.13;1.92;;;24.40;54.10;;;;;;4461297;32;20133;-71
2022/09/06 03:28:56;;;;;;;2.60;1.92;;;24.40;54.20;;;;;;4460860;32;20589;-71
2022/09/06 03:31:22;;;;;;;1.70;1.60;;;24.40;55.10;;;;;;4446888;32;20061;-71
2022/09/06 03:33:47;;;;;;;2.15;1.98;;;24.40;54.20;;;;;;4460910;32;20212;-71
2022/09/06 03:36:14;;;;;;;2.70;1.77;;;24.40;54.20;;;;;;4460978;32;20492;-71
2022/09/06 03:38:40;;;;;;;3.72;1.70;;;24.40;54.10;;;;;;4461236;32;20626;-71
2022/09/06 03:41:06;;;;;;;2.65;2.03;;;24.40;54.20;;;;;;4460638;32;20058;-71
2022/09/06 03:43:32;;;;;;;2.00;1.75;;;24.40;54.10;;;;;;4460551;32;20070;-71
2022/09/06 03:45:58;;;;;;;3.13;1.90;;;24.30;54.10;;;;;;4460362;32;20066;-71
2022/09/06 03:48:27;;;;;;;2.75;1.75;;;24.30;54.10;;;;;;4461050;32;20542;-71
2022/09/06 03:50:54;;;;;;;2.22;1.98;;;24.30;54.10;;;;;;4460478;32;20163;-71
2022/09/06 03:53:22;;;;;;;2.25;1.65;;;24.30;54.10;;;;;;4460542;32;20078;-71
2022/09/06 03:55:49;;;;;;;2.08;1.77;;;24.30;54.10;;;;;;4460796;32;20070;-71
2022/09/06 03:58:17;;;;;;;3.03;1.90;;;24.30;54.10;;;;;;4446627;32;20651;-71
2022/09/06 04:00:44;;;;;;;3.47;1.67;;;24.30;54.00;;;;;;4460669;32;20070;-71
2022/09/06 04:03:10;;;;;;;2.30;1.90;;;24.30;54.00;;;;;;4446305;32;20073;-71
2022/09/06 04:05:36;;;;;;;2.03;1.90;;;24.30;54.10;;;;;;4460808;32;20084;-71
2022/09/06 04:08:04;;;;;;;2.40;1.80;;;24.30;54.00;;;;;;4460600;32;20427;-71
2022/09/06 04:10:30;;;;;;;3.72;1.90;;;24.30;54.00;;;;;;4446277;32;20188;-71
2022/09/06 04:12:56;;;;;;;1.70;1.40;;;24.30;54.00;;;;;;4446571;32;20148;-71
2022/09/06 04:15:22;;;;;;;2.28;1.80;;;24.30;54.00;;;;;;4460473;32;20069;-71
2022/09/06 04:17:48;;;;;;;2.90;2.15;;;24.30;54.00;;;;;;4446473;32;20128;-71
2022/09/06 04:20:16;;;;;;;2.10;1.85;;;24.30;54.00;;;;;;4446183;32;20062;-72
2022/09/06 04:22:42;;;;;;;2.47;1.70;;;24.30;54.00;;;;;;4460517;32;20121;-71
2022/09/06 04:25:08;;;;;;;2.80;1.95;;;24.30;54.00;;;;;;4446385;32;20093;-71
2022/09/06 04:27:34;;;;;;;1.75;1.63;;;24.30;54.10;;;;;;4460673;32;20106;-71
2022/09/06 04:30:00;;;;;;;2.00;1.80;;;24.30;54.00;;;;;;4460323;32;20081;-71
2022/09/06 04:32:26;;;;;;;1.83;1.65;;;24.20;54.00;;;;;;4460345;32;20065;-71
2022/09/06 04:34:52;;;;;;;3.58;1.80;;;24.20;54.00;;;;;;4460280;32;20054;-71
2022/09/06 04:37:18;;;;;;;2.92;2.10;;;24.20;54.00;;;;;;4460292;32;20404;-71
2022/09/06 04:39:47;;;;;;;2.00;1.80;;;24.20;54.00;;;;;;4446176;32;20135;-71
2022/09/06 04:42:13;;;;;;;2.03;1.83;;;24.20;54.00;;;;;;4460117;32;20094;-72
2022/09/06 04:44:39;;;;;;;2.53;2.03;;;24.20;54.00;;;;;;4460527;32;20193;-71
2022/09/06 04:47:08;;;;;;;3.15;1.80;;;24.20;54.00;;;;;;4448753;32;20491;-71
2022/09/06 04:49:34;;;;;;;2.33;1.75;;;24.20;54.00;;;;;;4463344;32;20121;-71
2022/09/06 04:52:00;;;;;;;2.40;2.00;;;24.20;54.00;;;;;;4463025;32;20502;-71
2022/09/06 04:54:26;;;;;;;3.45;1.83;;;24.20;54.00;;;;;;4463271;32;20488;-72
2022/09/06 04:56:52;;;;;;;2.70;1.90;;;24.20;54.00;;;;;;4463282;32;20396;-71
2022/09/06 04:59:18;;;;;;;2.33;2.10;;;24.20;54.00;;;;;;4463181;32;20155;-71
2022/09/06 05:01:43;;;;;;;2.15;1.80;;;24.20;54.00;;;;;;4463163;32;20080;-71
2022/09/06 05:04:09;;;;;;;2.55;1.80;;;24.20;54.90;;;;;;4463062;32;20073;-71
2022/09/06 05:06:35;;;;;;;2.08;1.48;;;24.20;54.90;;;;;;4449066;32;20124;-71
2022/09/06 05:09:02;;;;;;;1.90;1.80;;;24.20;54.00;;;;;;4449252;32;20104;-71
2022/09/06 05:11:28;;;;;;;3.25;2.28;;;24.20;54.00;;;;;;4462761;32;20487;-71
2022/09/06 05:13:54;;;;;;;2.13;1.92;;;24.20;54.00;;;;;;4463019;32;20456;-71
2022/09/06 05:16:20;;;;;;;2.38;2.00;;;24.20;54.00;;;;;;4462922;32;20519;-71
2022/09/06 05:18:46;;;;;;;2.60;1.77;;;24.20;54.00;;;;;;4462672;32;20179;-71
2022/09/06 05:21:12;;;;;;;1.85;1.70;;;24.20;54.00;;;;;;4448979;32;20069;-71
2022/09/06 05:23:37;;;;;;;1.83;1.58;;;24.20;54.00;;;;;;4463076;32;20132;-71
2022/09/06 05:26:04;;;;;;;2.13;1.92;;;24.20;54.00;;;;;;4462867;32;20462;-71
2022/09/06 05:28:30;;;;;;;2.20;1.92;;;24.20;54.00;;;;;;4463003;32;20084;-71
2022/09/06 05:31:10;;;;;;;2.70;1.75;;;24.20;54.00;;;;;;4448921;32;20395;-71
2022/09/06 05:33:36;;;;;;;2.22;1.92;;;24.20;54.00;;;;;;4462571;32;20581;-71
2022/09/06 05:36:06;;;;;;;3.90;2.10;;;24.20;54.00;;;;;;4463036;32;20073;-71
2022/09/06 05:38:32;;;;;;;2.17;1.98;;;24.20;54.10;;;;;;4462867;32;20395;-71
2022/09/06 05:40:57;;;;;;;1.90;1.73;;;24.10;54.00;;;;;;4462652;32;20073;-71
2022/09/06 05:43:23;;;;;;;2.30;2.00;;;24.20;54.00;;;;;;4462632;32;20070;-71
2022/09/06 05:45:50;;;;;;;2.05;1.85;;;24.10;54.00;;;;;;4462451;32;20465;-71
2022/09/06 05:48:16;;;;;;;2.15;1.90;;;24.10;54.00;;;;;;4462565;32;20132;-71
2022/09/06 05:50:41;;;;;;;2.60;1.90;;;24.10;54.00;;;;;;4462284;32;20058;-70
2022/09/06 05:53:07;;;;;;;2.25;2.00;;;24.10;54.10;;;;;;4462456;32;20058;-73
2022/09/06 05:55:33;;;;;;;2.25;2.05;;;24.10;54.10;;;;;;4448204;32;20077;-71
2022/09/06 05:57:59;;;;;;;3.65;1.98;;;24.10;54.10;;;;;;4447687;32;20499;-71
2022/09/06 06:00:25;;;;;;;2.92;2.00;;;24.10;54.00;;;;;;4462332;32;20434;-71
2022/09/06 06:02:51;;;;;;;3.05;1.90;;;24.10;54.10;;;;;;4448532;32;20081;-71
2022/09/06 06:05:17;;;;;;;2.00;1.80;;;24.10;54.10;;;;;;4462185;32;20472;-71
2022/09/06 06:07:43;;;;;;;2.30;2.10;;;24.10;54.10;;;;;;4462255;32;20192;-71
2022/09/06 06:10:10;;;;;;;2.20;1.95;;;24.10;54.10;;;;;;4462191;32;20081;-71
2022/09/06 06:12:36;;;;;;;2.28;1.80;;;24.10;54.10;;;;;;4462208;32;20123;-71
2022/09/06 06:15:04;;;;;;;2.00;1.80;;;24.10;54.10;;;;;;4462385;32;20612;-71
2022/09/06 06:17:29;;;;;;;2.33;2.10;;;24.10;54.10;;;;;;4461775;32;20392;-72
2022/09/06 06:19:55;;;;;;;2.90;1.88;;;24.10;54.10;;;;;;4462055;32;20558;-71
2022/09/06 06:22:21;;;;;;;1.95;1.75;;;24.10;54.10;;;;;;4447771;32;20070;-71
2022/09/06 06:24:47;;;;;;;2.10;1.90;;;24.10;54.10;;;;;;4447831;32;20080;-71
2022/09/06 06:27:13;;;;;;;2.03;1.80;;;24.10;54.10;;;;;;4448005;32;20526;-71
2022/09/06 06:29:38;;;;;;;2.50;1.95;;;24.10;54.10;;;;;;4447706;32;20140;-71
2022/09/06 06:32:04;;;;;;;2.40;2.00;;;24.10;54.10;;;;;;4462091;32;20118;-71
2022/09/06 06:34:30;;;;;;;1.95;1.80;;;24.10;54.20;;;;;;4461725;32;20066;-71
2022/09/06 06:36:56;;;;;;;2.15;1.95;;;24.10;54.20;;;;;;4461484;32;20220;-72
2022/09/06 06:39:22;;;;;;;2.30;2.05;;;24.10;54.20;;;;;;4461674;32;20423;-72
2022/09/06 06:41:49;;;;;;;2.28;2.08;;;24.10;54.30;;;;;;4461969;32;20066;-72
2022/09/06 06:44:15;;;;;;;3.20;2.88;;;24.10;54.30;;;;;;4461670;32;20117;-72
2022/09/06 06:46:41;;;;;;;4.25;3.08;;;24.10;54.30;;;;;;4461515;32;20100;-72
2022/09/06 06:49:07;;;;;;;3.70;2.90;;;24.10;54.40;;;;;;4461900;32;20104;-72
2022/09/06 06:51:37;;;;;;;4.10;3.40;;;24.10;54.40;;;;;;4461197;32;20399;-72
2022/09/06 06:54:03;;;;;;;4.13;3.47;;;24.00;54.50;;;;;;4461498;32;20519;-72
2022/09/06 06:56:32;;;;;;;4.90;3.70;;;24.00;54.80;;;;;;4461487;32;20152;-72
2022/09/06 06:59:01;;;;;;;5.38;4.25;;;24.00;54.80;;;;;;4461663;32;20085;-73
2022/09/06 07:01:28;;;;;;;8.75;4.43;;;24.00;54.70;;;;;;4461691;32;20408;-72
2022/09/06 07:03:54;;;;;;;4.82;4.30;;;24.00;54.80;;;;;;4447281;32;20526;-72
2022/09/06 07:06:21;;;;;;;5.50;3.97;;;24.00;54.70;;;;;;4461360;32;20062;-73
2022/09/06 07:08:48;;;;;;;6.53;4.75;;;24.00;54.80;;;;;;4461068;32;20081;-73
2022/09/06 07:11:16;;;;;;;4.45;4.05;;;24.10;55.00;;;;;;4461159;32;20113;-73
2022/09/06 07:13:42;;;;;;;5.30;4.80;;;24.00;55.00;;;;;;4460999;32;20096;-73
2022/09/06 07:16:12;;;;;;;5.70;4.80;;;24.00;55.10;;;;;;4461405;32;20077;-72
2022/09/06 07:18:41;;;;;;;5.15;4.65;;;24.00;55.20;;;;;;4461464;32;20516;-72
2022/09/06 07:21:15;;;;;;;7.05;5.30;;;24.00;55.20;;;;;;4461059;32;20412;-73
2022/09/06 07:23:42;;;;;;;6.93;5.10;;;24.00;55.40;;;;;;4447450;32;20085;-72
2022/09/06 07:26:14;;;;;;;5.82;4.60;;;24.00;55.30;;;;;;4461046;32;20211;-72
2022/09/06 07:28:40;;;;;;;10.82;5.18;;;24.00;55.40;;;;;;4447357;32;20098;-72
2022/09/06 07:31:06;;;;;;;6.20;5.07;;;24.00;55.40;;;;;;4461113;32;20487;-72
2022/09/06 07:33:34;;;;;;;5.45;4.80;;;24.00;55.40;;;;;;4460893;32;20546;-72
2022/09/06 07:36:02;;;;;;;6.13;4.63;;;24.00;55.30;;;;;;4461192;32;20223;-72
2022/09/06 07:38:28;;;;;;;7.05;5.00;;;24.00;55.30;;;;;;4461144;32;20077;-72
2022/09/06 07:40:59;;;;;;;7.10;5.28;;;24.10;55.40;;;;;;4460821;32;20159;-73
2022/09/06 07:43:26;;;;;;;6.40;4.50;;;24.10;55.30;;;;;;4460619;32;20234;-72
2022/09/06 07:46:10;;;;;;;5.35;4.75;;;24.10;55.40;;;;;;4460601;32;20207;-72
2022/09/06 07:48:39;;;;;;;5.50;4.80;;;24.20;55.40;;;;;;4461111;32;20085;-72
2022/09/06 07:51:15;;;;;;;5.65;4.60;;;24.20;55.40;;;;;;4446457;32;20558;-72
2022/09/06 07:53:43;;;;;;;8.07;4.85;;;24.20;55.40;;;;;;4460910;32;20066;-72
2022/09/06 07:56:11;;;;;;;5.65;5.10;;;24.20;55.50;;;;;;4446654;32;20192;-72
2022/09/06 07:58:38;;;;;;;5.70;4.50;;;24.20;55.50;;;;;;4460605;32;20239;-72
2022/09/06 08:01:36;;;;;;;6.13;5.20;;;24.30;55.50;;;;;;4460635;32;20121;-74
2022/09/06 08:04:04;;;;;;;5.20;4.80;;;24.30;55.50;;;;;;4460521;32;20164;-73
2022/09/06 08:06:34;;;;;;;5.47;4.70;;;24.30;55.50;;;;;;4460716;32;20384;-73
2022/09/06 08:09:00;;;;;;;6.50;4.85;;;24.30;55.50;;;;;;4460479;32;20094;-72
2022/09/06 08:11:29;;;;;;;5.78;4.65;;;24.30;55.40;;;;;;4460411;32;20523;-72
2022/09/06 08:13:57;;;;;;;5.93;5.00;;;24.40;55.50;;;;;;4446396;32;20140;-73
2022/09/06 08:16:26;;;;;;;7.45;4.90;;;24.40;55.40;;;;;;4460379;32;20093;-73
2022/09/06 08:18:54;;;;;;;6.88;4.93;;;24.40;55.30;;;;;;4458244;32;20136;-73
2022/09/06 08:21:24;;;;;;;6.68;4.82;;;24.40;55.20;;;;;;4459841;32;20231;-72
2022/09/06 08:23:53;;;;;;;5.10;4.60;;;24.40;55.30;;;;;;4446050;32;20140;-74
2022/09/06 08:26:21;;;;;;;5.50;4.75;;;24.40;55.20;;;;;;4445901;32;20066;-73
2022/09/06 08:28:51;;;;;;;5.18;4.38;;;24.50;55.10;;;;;;4460251;32;20081;-73
2022/09/06 08:31:18;;;;;;;4.95;4.40;;;24.50;55.10;;;;;;4460326;32;20066;-72
2022/09/06 08:33:46;;;;;;;7.05;4.88;;;24.50;55.00;;;;;;4433453;32;20084;-72
2022/09/06 08:36:13;;;;;;;8.52;5.30;;;24.50;55.00;;;;;;4460272;32;20279;-72
2022/09/06 08:38:39;;;;;;;5.20;4.70;;;24.50;55.00;;;;;;4460500;32;20092;-71
2022/09/06 08:41:10;;;;;;;7.78;5.47;;;24.60;55.00;;;;;;4446000;32;20120;-72
2022/09/06 08:43:37;;;;;;;7.60;5.10;;;24.60;55.00;;;;;;4446211;32;20638;-72
2022/09/06 08:46:05;;;;;;;9.77;5.78;;;24.60;55.00;;;;;;4459676;32;20086;-72
2022/09/06 08:48:35;;;;;;;9.65;5.85;;;24.60;55.00;;;;;;4460483;32;20085;-72
2022/09/06 08:51:19;;;;;;;6.57;5.93;;;24.60;54.90;;;;;;4446319;32;20419;-73
2022/09/06 08:53:45;;;;;;;6.47;5.68;;;24.60;54.80;;;;;;4460277;32;20113;-72
2022/09/06 08:56:17;;;;;;;7.07;5.97;;;24.60;54.80;;;;;;4446163;32;20615;-72
2022/09/06 08:59:10;;;;;;;11.88;6.22;;;24.60;54.80;;;;;;4460680;32;20065;-71
2022/09/06 09:01:55;;;;;;;7.97;6.75;;;24.60;54.70;;;;;;4460390;32;20412;-73
2022/09/06 09:04:23;;;;;;;7.45;5.85;;;24.60;54.70;;;;;;4460163;32;20070;-72
2022/09/06 09:06:52;;;;;;;7.88;5.75;;;24.60;54.60;;;;;;4460130;32;20073;-72
2022/09/06 09:09:18;;;;;;;8.10;5.82;;;24.70;54.70;;;;;;4460098;32;20532;-74
2022/09/06 09:11:49;;;;;;;8.70;5.45;;;24.70;54.60;;;;;;4459632;32;20107;-73
2022/09/06 09:14:25;;;;;;;10.55;5.80;;;24.70;54.50;;;;;;4446149;32;20614;-72
2022/09/06 09:16:52;;;;;;;8.82;6.30;;;24.70;54.50;;;;;;4460253;32;20070;-72
2022/09/06 09:19:18;;;;;;;7.82;5.68;;;24.70;54.50;;;;;;4459792;32;20088;-73
2022/09/06 09:21:44;;;;;;;8.02;5.88;;;24.70;54.50;;;;;;4460052;32;20125;-73
2022/09/06 09:24:12;;;;;;;7.50;5.60;;;24.70;54.50;;;;;;4446284;32;20208;-72
2022/09/06 09:26:55;;;;;;;8.65;6.07;;;24.70;54.50;;;;;;4459978;32;20092;-73
2022/09/06 09:29:21;;;;;;;6.78;5.38;;;24.70;54.40;;;;;;4460089;32;20581;-72
2022/09/06 09:31:51;;;;;;;8.50;5.15;;;24.70;54.40;;;;;;4446672;32;20089;-72
2022/09/06 09:34:36;;;;;;;7.80;5.95;;;24.70;54.40;;;;;;4462699;32;20574;-74
2022/09/06 09:37:23;;;;;;;6.50;5.82;;;24.70;54.40;;;;;;4462838;32;20496;-75
2022/09/06 09:39:52;;;;;;;6.45;5.57;;;24.70;54.50;;;;;;4462915;32;20092;-76
2022/09/06 09:42:31;;;;;;;10.60;5.53;;;24.70;54.50;;;;;;4463267;32;20135;-76
2022/09/06 09:44:58;;;;;;;6.72;5.55;;;24.60;54.50;;;;;;4450080;32;20468;-75
2022/09/06 09:47:29;;;;;;;6.05;5.07;;;24.60;54.60;;;;;;4449450;32;20562;-74
2022/09/06 09:49:56;;;;;;;7.70;5.47;;;24.60;54.60;;;;;;4463282;32;20110;-74
2022/09/06 09:52:28;;;;;;;7.85;5.65;;;24.60;54.70;;;;;;4463023;32;20074;-74
2022/09/06 09:55:02;;;;;;;6.28;5.20;;;24.60;54.80;;;;;;4462563;32;20078;-75
2022/09/06 09:57:31;;;;;;;8.13;5.43;;;24.60;54.90;;;;;;4462671;32;20491;-74
2022/09/06 10:00:00;;;;;;;15.55;5.57;;;24.60;54.90;;;;;;4462381;32;20073;-74
2022/09/06 10:02:37;;;;;;;8.93;5.15;;;24.60;55.00;;;;;;4462062;32;20093;-74
2022/09/06 10:05:14;;;;;;;7.95;5.80;;;24.60;55.00;;;;;;4462494;32;20120;-74
2022/09/06 10:07:53;;;;;;;7.70;5.50;;;24.60;55.10;;;;;;4448500;32;20077;-74
2022/09/06 10:10:27;;;;;;;7.15;5.30;;;24.60;55.00;;;;;;4462480;32;20090;-75
2022/09/06 10:13:25;;;;;;;7.47;5.68;;;24.60;55.00;;;;;;4462176;32;20426;-74
2022/09/06 10:15:52;;;;;;;9.50;5.65;;;24.50;54.90;;;;;;4462780;32;20491;-74
2022/09/06 10:18:19;;;;;;;9.98;6.07;;;24.50;54.90;;;;;;4462557;32;20089;-75
2022/09/06 10:21:03;;;;;;;14.07;6.20;;;24.50;55.00;;;;;;4462052;32;20102;-74
2022/09/06 10:24:03;;;;;;;7.82;5.30;;;24.50;55.00;;;;;;4462196;32;20219;-72
2022/09/06 10:26:49;;;;;;;7.65;5.75;;;24.50;55.00;;;;;;4462079;32;20088;-73
2022/09/06 10:29:28;;;;;;;10.52;5.70;;;24.50;55.20;;;;;;4461702;32;20116;-73
2022/09/06 10:32:13;;;;;;;7.05;5.78;;;24.60;55.20;;;;;;4462040;32;20082;-73
2022/09/06 10:35:03;;;;;;;7.65;5.15;;;24.60;55.20;;;;;;4461551;32;20414;-73
2022/09/06 10:37:35;;;;;;;6.30;5.25;;;24.60;55.20;;;;;;4462115;32;20081;-73
2022/09/06 10:40:08;;;;;;;9.68;5.35;;;24.60;55.20;;;;;;4461979;32;20065;-77
2022/09/06 10:42:48;;;;;;;5.97;4.90;;;24.60;55.10;;;;;;4461849;32;20077;-72
2022/09/06 10:45:20;;;;;;;6.60;5.22;;;24.50;55.10;;;;;;4461173;32;20069;-72
2022/09/06 10:48:13;;;;;;;7.00;5.50;;;24.60;55.20;;;;;;4461761;32;20094;-72
2022/09/06 10:50:57;;;;;;;10.48;5.28;;;24.60;55.50;;;;;;4461908;32;20212;-72
2022/09/06 10:53:35;;;;;;;9.35;5.18;;;24.60;55.20;;;;;;4462133;32;20077;-73
2022/09/06 10:56:07;;;;;;;7.75;5.10;;;24.60;55.10;;;;;;4461486;32;20125;-72
2022/09/06 10:58:41;;;;;;;8.60;4.95;;;24.60;55.10;;;;;;4461553;32;20625;-72
2022/09/06 11:01:21;;;;;;;7.45;5.47;;;24.60;55.10;;;;;;4461682;32;20070;-72
2022/09/06 11:03:49;;;;;;;7.40;5.13;;;24.70;55.00;;;;;;4461657;32;20078;-72
2022/09/06 11:06:18;;;;;;;6.88;4.90;;;24.70;54.80;;;;;;4445999;32;20105;-73
2022/09/06 11:09:13;;;;;;;7.10;4.82;;;24.70;54.70;;;;;;4446563;32;20095;-72
2022/09/06 11:11:44;;;;;;;7.18;4.82;;;24.70;54.80;;;;;;4434143;32;20530;-74
2022/09/06 11:14:13;;;;;;;9.10;4.97;;;24.70;54.60;;;;;;4434582;32;20423;-74
2022/09/06 11:16:56;;;;;;;5.65;4.63;;;24.70;54.50;;;;;;4447266;32;20066;-73
2022/09/06 11:19:57;;;;;;;8.02;4.75;;;24.70;54.40;;;;;;4460828;32;20096;-71
2022/09/06 11:22:49;;;;;;;10.88;4.57;;;24.70;54.30;;;;;;4449913;32;20510;-72
2022/09/06 11:25:49;;;;;;;5.28;4.50;;;24.70;54.20;;;;;;4457903;32;20070;-73
2022/09/06 11:28:25;;;;;;;6.38;4.30;;;24.70;54.20;;;;;;4447506;32;20491;-73
2022/09/06 11:30:56;;;;;;;5.63;4.75;;;24.80;54.20;;;;;;4460721;32;20097;-72
2022/09/06 11:33:29;;;;;;;7.30;4.88;;;24.80;54.10;;;;;;4461054;32;20081;-72
2022/09/06 11:36:25;;;;;;;6.67;4.50;;;24.80;54.00;;;;;;4461243;32;20616;-72
2022/09/06 11:39:00;;;;;;;7.22;4.88;;;24.80;53.90;;;;;;4461061;32;20262;-73
2022/09/06 11:41:30;;;;;;;5.10;4.60;;;24.80;53.80;;;;;;4460759;32;20581;-73
2022/09/06 11:43:57;;;;;;;7.70;4.60;;;24.80;53.80;;;;;;4460840;32;20132;-73
2022/09/06 11:46:32;;;;;;;10.60;5.47;;;24.80;53.70;;;;;;4460562;32;20160;-74
2022/09/06 11:49:04;;;;;;;8.95;5.60;;;24.80;53.60;;;;;;4446664;32;20073;-70
2022/09/06 11:51:37;;;;;;;9.55;4.93;;;24.80;53.60;;;;;;4460545;32;20080;-74
2022/09/06 11:54:34;;;;;;;7.40;5.13;;;24.90;53.50;;;;;;4460893;32;20467;-72
2022/09/06 11:57:11;;;;;;;8.48;4.97;;;24.90;53.40;;;;;;4438631;32;20100;-73
2022/09/06 11:59:49;;;;;;;9.32;4.97;;;24.90;53.40;;;;;;4460833;32;20183;-73
2022/09/06 12:02:33;;;;;;;7.90;4.88;;;24.90;53.50;;;;;;4446740;32;20078;-72
2022/09/06 12:05:05;;;;;;;7.75;4.78;;;24.90;53.50;;;;;;4460496;32;20066;-74
2022/09/06 12:08:09;;;;;;;8.05;4.40;;;24.90;53.50;;;;;;4446601;32;20070;-72
2022/09/06 12:10:38;;;;;;;9.90;4.60;;;25.00;53.60;;;;;;4436138;32;20085;-73
2022/09/06 12:13:41;;;;;;;9.48;5.10;;;25.00;53.60;;;;;;4446449;32;20078;-74
2022/09/06 12:16:12;;;;;;;10.60;4.30;;;25.00;53.80;;;;;;4460654;32;20167;-73
2022/09/06 12:18:47;;;;;;;10.20;4.95;;;25.00;53.80;;;;;;4460355;32;20073;-73
2022/09/06 12:21:35;;;;;;;7.30;4.85;;;25.00;53.70;;;;;;4460098;32;20085;-75
2022/09/06 12:24:02;;;;;;;6.80;4.50;;;25.00;53.60;;;;;;4460429;32;20078;-73
2022/09/06 12:26:50;;;;;;;6.50;4.57;;;25.00;53.40;;;;;;4460354;32;20163;-74
2022/09/06 12:29:27;;;;;;;8.52;4.57;;;25.10;53.40;;;;;;4460291;32;20114;-73
2022/09/06 12:31:56;;;;;;;10.30;3.95;;;25.00;53.30;;;;;;4460031;32;20077;-73
2022/09/06 12:34:25;;;;;;;5.97;4.40;;;25.00;53.30;;;;;;4460405;32;20085;-73
2022/09/06 12:36:55;;;;;;;5.95;4.40;;;25.10;53.40;;;;;;4459932;32;20507;-73
2022/09/06 12:39:21;;;;;;;7.43;4.85;;;25.10;53.50;;;;;;4459955;32;20192;-75
2022/09/06 12:41:50;;;;;;;7.47;4.35;;;25.10;53.50;;;;;;4460307;32;20081;-72
2022/09/06 12:44:27;;;;;;;7.53;4.28;;;25.10;53.40;;;;;;4460083;32;20183;-72
2022/09/06 12:46:53;;;;;;;8.65;4.20;;;25.20;53.40;;;;;;4460080;32;20077;-74
2022/09/06 12:49:21;;;;;;;7.43;4.20;;;25.20;53.20;;;;;;4460148;32;20525;-74
2022/09/06 12:51:47;;;;;;;10.13;4.28;;;25.20;53.20;;;;;;4459830;32;20440;-73
2022/09/06 12:54:23;;;;;;;5.90;4.10;;;25.20;53.10;;;;;;4460500;32;20100;-73
2022/09/06 12:56:50;;;;;;;7.47;4.07;;;25.20;53.10;;;;;;4459903;32;20073;-73
2022/09/06 12:59:23;;;;;;;6.05;4.38;;;25.20;53.10;;;;;;4459840;32;20198;-73
2022/09/06 13:02:04;;;;;;;8.43;4.25;;;25.10;53.00;;;;;;4460479;32;20081;-74
2022/09/06 13:04:38;;;;;;;7.13;4.20;;;25.20;52.90;;;;;;4460104;32;20128;-74
2022/09/06 13:07:08;;;;;;;6.70;3.97;;;25.20;53.00;;;;;;4446659;32;20076;-74